Woburn, MA (01888)

3:00 PM EST on January 27, 2015 (GMT -0500)
woburn | Change Station
CLOSE
Current Station
Personal Weather Station
Location: Woburn, MA
Elevation: 115 ft
Nearby Weather Stations
Active Advisory: Blizzard Warning Active Notice: Public Information Statement

Elev 115 ft 42.48 °N, 71.15 °W | Updated 41 seconds ago

Snow
Snow
16.2 °F
Feels Like 8 °F
N
5.4
Wind Variable Wind from NNW
Gusts 7.0 mph

Today
High -- | Low -- °F
--% Chance of Precip.
Yesterday
High -- | Low -- °F
Precip. -- in
7:03 AM 4:51 PM
First Quarter, 57% visible
Pressure 29.58 in
Visibility 0.8 miles
Clouds
Windchill 8 °F
Dew Point 14 °F
Humidity 90%
Rainfall 0.00 in
Snow Depth Not available.
UV Not available.
Pollen .10 out of 12
Air Quality Not available.
Flu Activity Not available.
METAR KBED 271956Z 35014G20KT 3/4SM R11/2600V6000FT -SN VV017 M08/M11 A2952 RMK AO2 PK WND 35029/1910 SLP016 P0000 T10831111 $

More Conditions Fewer Conditions

Pressure 29.58 in
Visibility 0.8 miles
Clouds
Windchill 8 °F
Dew Point 14 °F
Humidity 90%
Rainfall 0.00 in
Snow Depth Not available.
UV Not available.
Pollen .10 out of 12
Air Quality Not available.
Flu Activity Not available.
METAR KBED 271956Z 35014G20KT 3/4SM R11/2600V6000FT -SN VV017 M08/M11 A2952 RMK AO2 PK WND 35029/1910 SLP016 P0000 T10831111 $

More Conditions Fewer Conditions

10-Day Weather Forecast

Almanac

Astronomy

Jan. 27, 2015 Rise Set
Actual Time
Civil Twilight
Nautical Twilight
Astronomical Twilight
Moon
Length of Visible Light
Length of Day
Tomorrow will be .
, % of the Moon is Illuminated

Today's Extremes

State Highs State Lows

Community

WunderPhotos

Upload Photos

1,790,874 photos uploaded!

WunderBlogs® & News

Nearby

Air Quality

  Air Quality AQ Index Pollutant
Not available.

Snow Depth

Station Depth Elevation

Earthquake Activity

City Distance Mag. Time & Date
Minimum magnitude displayed is 2.5.

Coastal Water Temperatures

Place Temperature

Nearby Weather Stations